sensor_id;sensor_type;location;lat;lon;timestamp;P1;durP1;ratioP1;P2;durP2;ratioP2
18021;SDS011;9136;48.822;7.966;2023-09-19T00:03:26;18.10;;;17.30;;
18021;SDS011;9136;48.822;7.966;2023-09-19T00:06:36;18.70;;;17.90;;
18021;SDS011;9136;48.822;7.966;2023-09-19T00:09:44;17.07;;;16.33;;
18021;SDS011;9136;48.822;7.966;2023-09-19T00:51:16;18.60;;;17.80;;
18021;SDS011;9136;48.822;7.966;2023-09-19T00:54:20;17.67;;;16.87;;
18021;SDS011;9136;48.822;7.966;2023-09-19T01:01:32;20.40;;;19.50;;
18021;SDS011;9136;48.822;7.966;2023-09-19T01:04:37;19.23;;;18.37;;
18021;SDS011;9136;48.822;7.966;2023-09-19T01:11:57;18.20;;;17.40;;
18021;SDS011;9136;48.822;7.966;2023-09-19T01:19:07;17.83;;;17.03;;
18021;SDS011;9136;48.822;7.966;2023-09-19T01:29:48;18.07;;;17.27;;
18021;SDS011;9136;48.822;7.966;2023-09-19T01:47:23;18.07;;;17.17;;
18021;SDS011;9136;48.822;7.966;2023-09-19T01:55:07;18.13;;;17.33;;
18021;SDS011;9136;48.822;7.966;2023-09-19T01:58:40;17.63;;;16.83;;
18021;SDS011;9136;48.822;7.966;2023-09-19T02:02:03;18.07;;;17.27;;
18021;SDS011;9136;48.822;7.966;2023-09-19T02:05:12;18.20;;;17.17;;
18021;SDS011;9136;48.822;7.966;2023-09-19T02:08:48;17.20;;;16.50;;
18021;SDS011;9136;48.822;7.966;2023-09-19T02:11:54;16.60;;;15.90;;
18021;SDS011;9136;48.822;7.966;2023-09-19T02:18:44;17.83;;;17.03;;
18021;SDS011;9136;48.822;7.966;2023-09-19T02:21:50;16.97;;;16.27;;
18021;SDS011;9136;48.822;7.966;2023-09-19T02:24:55;17.93;;;17.13;;
18021;SDS011;9136;48.822;7.966;2023-09-19T02:28:20;17.07;;;16.37;;
18021;SDS011;9136;48.822;7.966;2023-09-19T02:38:30;18.50;;;17.70;;
18021;SDS011;9136;48.822;7.966;2023-09-19T02:52:32;18.13;;;17.33;;
18021;SDS011;9136;48.822;7.966;2023-09-19T02:55:41;17.63;;;16.83;;
18021;SDS011;9136;48.822;7.966;2023-09-19T02:59:59;17.77;;;16.98;;
18021;SDS011;9136;48.822;7.966;2023-09-19T03:02:16;17.67;;;16.88;;
18021;SDS011;9136;48.822;7.966;2023-09-19T03:13:06;16.45;;;15.65;;
18021;SDS011;9136;48.822;7.966;2023-09-19T03:16:51;17.75;;;16.95;;
18021;SDS011;9136;48.822;7.966;2023-09-19T03:21:17;17.63;;;16.83;;
18021;SDS011;9136;48.822;7.966;2023-09-19T03:24:24;17.85;;;17.05;;
18021;SDS011;9136;48.822;7.966;2023-09-19T04:23:47;16.60;;;15.90;;
18021;SDS011;9136;48.822;7.966;2023-09-19T04:26:54;18.03;;;17.23;;
18021;SDS011;9136;48.822;7.966;2023-09-19T04:33:42;19.87;;;18.63;;
18021;SDS011;9136;48.822;7.966;2023-09-19T04:38:18;18.10;;;17.30;;
18021;SDS011;9136;48.822;7.966;2023-09-19T04:52:14;17.90;;;17.10;;
18021;SDS011;9136;48.822;7.966;2023-09-19T05:04:10;17.43;;;16.63;;
18021;SDS011;9136;48.822;7.966;2023-09-19T05:14:46;18.00;;;17.20;;
18021;SDS011;9136;48.822;7.966;2023-09-19T05:25:29;16.93;;;16.17;;
18021;SDS011;9136;48.822;7.966;2023-09-19T05:28:44;18.00;;;17.20;;
18021;SDS011;9136;48.822;7.966;2023-09-19T05:31:51;16.50;;;15.80;;
18021;SDS011;9136;48.822;7.966;2023-09-19T05:34:49;18.80;;;18.00;;
18021;SDS011;9136;48.822;7.966;2023-09-19T05:37:57;19.50;;;18.60;;
18021;SDS011;9136;48.822;7.966;2023-09-19T05:40:53;19.13;;;18.23;;
18021;SDS011;9136;48.822;7.966;2023-09-19T05:44:34;18.73;;;17.73;;
18021;SDS011;9136;48.822;7.966;2023-09-19T05:50:54;16.87;;;16.17;;
18021;SDS011;9136;48.822;7.966;2023-09-19T05:53:56;20.23;;;19.33;;
18021;SDS011;9136;48.822;7.966;2023-09-19T05:56:55;18.53;;;17.73;;
18021;SDS011;9136;48.822;7.966;2023-09-19T06:06:38;20.47;;;19.57;;
18021;SDS011;9136;48.822;7.966;2023-09-19T06:10:02;18.97;;;18.07;;
18021;SDS011;9136;48.822;7.966;2023-09-19T06:13:22;20.07;;;19.10;;
18021;SDS011;9136;48.822;7.966;2023-09-19T06:16:46;19.47;;;18.57;;
18021;SDS011;9136;48.822;7.966;2023-09-19T06:19:53;18.97;;;18.17;;
18021;SDS011;9136;48.822;7.966;2023-09-19T06:23:38;18.30;;;17.50;;
18021;SDS011;9136;48.822;7.966;2023-09-19T06:27:03;18.53;;;17.73;;
18021;SDS011;9136;48.822;7.966;2023-09-19T06:30:45;18.07;;;17.27;;
18021;SDS011;9136;48.822;7.966;2023-09-19T06:34:38;19.00;;;18.10;;
18021;SDS011;9136;48.822;7.966;2023-09-19T06:41:55;17.87;;;17.07;;
18021;SDS011;9136;48.822;7.966;2023-09-19T06:45:26;20.37;;;19.27;;
18021;SDS011;9136;48.822;7.966;2023-09-19T06:49:01;18.80;;;17.90;;
18021;SDS011;9136;48.822;7.966;2023-09-19T06:53:36;19.13;;;18.23;;
18021;SDS011;9136;48.822;7.966;2023-09-19T06:58:57;18.40;;;17.50;;
18021;SDS011;9136;48.822;7.966;2023-09-19T07:02:07;16.87;;;15.93;;
18021;SDS011;9136;48.822;7.966;2023-09-19T07:05:39;16.87;;;16.17;;
18021;SDS011;9136;48.822;7.966;2023-09-19T07:08:25;18.37;;;17.47;;
18021;SDS011;9136;48.822;7.966;2023-09-19T07:14:44;18.70;;;17.90;;
18021;SDS011;9136;48.822;7.966;2023-09-19T07:17:44;19.77;;;18.77;;
18021;SDS011;9136;48.822;7.966;2023-09-19T07:21:06;19.10;;;18.20;;
18021;SDS011;9136;48.822;7.966;2023-09-19T07:24:29;19.40;;;17.58;;
18021;SDS011;9136;48.822;7.966;2023-09-19T07:30:49;17.40;;;16.60;;
18021;SDS011;9136;48.822;7.966;2023-09-19T07:33:38;17.73;;;16.92;;
18021;SDS011;9136;48.822;7.966;2023-09-19T07:36:40;17.17;;;16.42;;
18021;SDS011;9136;48.822;7.966;2023-09-19T07:39:55;19.05;;;18.25;;
18021;SDS011;9136;48.822;7.966;2023-09-19T07:49:38;16.85;;;16.15;;
18021;SDS011;9136;48.822;7.966;2023-09-19T07:52:30;18.08;;;16.73;;
18021;SDS011;9136;48.822;7.966;2023-09-19T07:55:40;16.65;;;15.95;;
18021;SDS011;9136;48.822;7.966;2023-09-19T07:59:48;17.90;;;17.10;;
18021;SDS011;9136;48.822;7.966;2023-09-19T08:02:22;17.42;;;16.42;;
18021;SDS011;9136;48.822;7.966;2023-09-19T08:05:40;18.15;;;17.35;;
18021;SDS011;9136;48.822;7.966;2023-09-19T08:09:30;18.40;;;17.60;;
18021;SDS011;9136;48.822;7.966;2023-09-19T08:12:41;15.88;;;15.18;;
18021;SDS011;9136;48.822;7.966;2023-09-19T08:23:04;16.80;;;15.77;;
18021;SDS011;9136;48.822;7.966;2023-09-19T08:29:49;15.48;;;14.77;;
18021;SDS011;9136;48.822;7.966;2023-09-19T09:14:46;15.30;;;14.60;;
18021;SDS011;9136;48.822;7.966;2023-09-19T09:29:31;15.35;;;14.65;;
18021;SDS011;9136;48.822;7.966;2023-09-19T09:54:29;16.02;;;15.32;;
18021;SDS011;9136;48.822;7.966;2023-09-19T09:58:01;16.58;;;15.88;;
18021;SDS011;9136;48.822;7.966;2023-09-19T10:02:15;15.52;;;14.82;;
18021;SDS011;9136;48.822;7.966;2023-09-19T10:05:46;17.75;;;16.40;;
18021;SDS011;9136;48.822;7.966;2023-09-19T10:12:26;16.10;;;15.40;;
18021;SDS011;9136;48.822;7.966;2023-09-19T10:23:01;14.55;;;13.95;;
18021;SDS011;9136;48.822;7.966;2023-09-19T10:27:06;14.32;;;13.73;;
18021;SDS011;9136;48.822;7.966;2023-09-19T10:29:52;15.18;;;14.52;;
18021;SDS011;9136;48.822;7.966;2023-09-19T10:36:47;15.65;;;14.95;;
18021;SDS011;9136;48.822;7.966;2023-09-19T10:43:37;17.10;;;16.30;;
18021;SDS011;9136;48.822;7.966;2023-09-19T10:47:41;16.80;;;16.00;;
18021;SDS011;9136;48.822;7.966;2023-09-19T10:50:56;16.33;;;15.60;;
18021;SDS011;9136;48.822;7.966;2023-09-19T10:54:02;15.82;;;15.13;;
18021;SDS011;9136;48.822;7.966;2023-09-19T11:19:04;13.02;;;12.43;;
18021;SDS011;9136;48.822;7.966;2023-09-19T11:22:06;13.30;;;12.70;;
18021;SDS011;9136;48.822;7.966;2023-09-19T11:28:49;13.63;;;13.02;;
18021;SDS011;9136;48.822;7.966;2023-09-19T11:32:15;12.75;;;12.25;;
18021;SDS011;9136;48.822;7.966;2023-09-19T11:35:11;12.40;;;11.82;;
18021;SDS011;9136;48.822;7.966;2023-09-19T11:39:03;12.30;;;11.80;;
18021;SDS011;9136;48.822;7.966;2023-09-19T11:46:24;12.27;;;11.77;;
18021;SDS011;9136;48.822;7.966;2023-09-19T11:49:28;12.80;;;12.20;;
18021;SDS011;9136;48.822;7.966;2023-09-19T11:53:06;12.82;;;12.23;;
18021;SDS011;9136;48.822;7.966;2023-09-19T11:56:41;12.02;;;11.52;;
18021;SDS011;9136;48.822;7.966;2023-09-19T12:21:52;11.50;;;11.00;;
18021;SDS011;9136;48.822;7.966;2023-09-19T12:29:18;11.50;;;10.98;;
18021;SDS011;9136;48.822;7.966;2023-09-19T12:32:41;11.23;;;10.73;;
18021;SDS011;9136;48.822;7.966;2023-09-19T12:36:34;11.90;;;11.38;;
18021;SDS011;9136;48.822;7.966;2023-09-19T12:43:49;12.32;;;11.82;;
18021;SDS011;9136;48.822;7.966;2023-09-19T12:46:44;13.07;;;12.30;;
18021;SDS011;9136;48.822;7.966;2023-09-19T12:50:14;12.57;;;12.07;;
18021;SDS011;9136;48.822;7.966;2023-09-19T13:18:10;11.50;;;11.00;;
18021;SDS011;9136;48.822;7.966;2023-09-19T14:20:16;12.90;;;12.32;;
18021;SDS011;9136;48.822;7.966;2023-09-19T14:24:51;13.35;;;12.75;;
18021;SDS011;9136;48.822;7.966;2023-09-19T14:27:33;12.27;;;11.77;;
18021;SDS011;9136;48.822;7.966;2023-09-19T14:30:21;13.52;;;12.93;;
18021;SDS011;9136;48.822;7.966;2023-09-19T14:33:11;12.98;;;12.48;;
18021;SDS011;9136;48.822;7.966;2023-09-19T14:36:02;12.15;;;11.65;;
18021;SDS011;9136;48.822;7.966;2023-09-19T14:38:52;13.60;;;12.80;;
18021;SDS011;9136;48.822;7.966;2023-09-19T14:41:44;12.73;;;12.23;;
18021;SDS011;9136;48.822;7.966;2023-09-19T14:44:32;13.30;;;12.70;;
18021;SDS011;9136;48.822;7.966;2023-09-19T14:47:21;12.90;;;12.30;;
18021;SDS011;9136;48.822;7.966;2023-09-19T14:50:11;13.25;;;12.65;;
18021;SDS011;9136;48.822;7.966;2023-09-19T14:52:59;12.90;;;12.40;;
18021;SDS011;9136;48.822;7.966;2023-09-19T14:55:49;14.30;;;13.70;;
18021;SDS011;9136;48.822;7.966;2023-09-19T14:58:38;13.43;;;12.82;;
18021;SDS011;9136;48.822;7.966;2023-09-19T15:01:26;11.73;;;11.23;;
18021;SDS011;9136;48.822;7.966;2023-09-19T15:04:13;12.18;;;11.68;;
18021;SDS011;9136;48.822;7.966;2023-09-19T15:07:03;12.52;;;11.93;;
18021;SDS011;9136;48.822;7.966;2023-09-19T15:09:51;12.27;;;11.75;;
18021;SDS011;9136;48.822;7.966;2023-09-19T15:12:41;12.82;;;12.23;;
18021;SDS011;9136;48.822;7.966;2023-09-19T15:15:31;12.30;;;11.80;;
18021;SDS011;9136;48.822;7.966;2023-09-19T15:18:19;12.65;;;12.15;;
18021;SDS011;9136;48.822;7.966;2023-09-19T15:21:09;12.02;;;11.52;;
18021;SDS011;9136;48.822;7.966;2023-09-19T15:23:59;11.70;;;11.20;;
18021;SDS011;9136;48.822;7.966;2023-09-19T15:26:47;12.60;;;12.10;;
18021;SDS011;9136;48.822;7.966;2023-09-19T15:29:36;12.30;;;11.80;;
18021;SDS011;9136;48.822;7.966;2023-09-19T15:32:26;12.50;;;12.00;;
18021;SDS011;9136;48.822;7.966;2023-09-19T15:35:19;12.55;;;12.05;;
18021;SDS011;9136;48.822;7.966;2023-09-19T15:38:08;11.57;;;11.07;;
18021;SDS011;9136;48.822;7.966;2023-09-19T15:40:59;12.18;;;11.68;;
18021;SDS011;9136;48.822;7.966;2023-09-19T15:43:47;11.57;;;11.07;;
18021;SDS011;9136;48.822;7.966;2023-09-19T15:46:36;11.90;;;11.40;;
18021;SDS011;9136;48.822;7.966;2023-09-19T15:49:24;13.88;;;12.63;;
18021;SDS011;9136;48.822;7.966;2023-09-19T15:52:12;10.82;;;10.38;;
18021;SDS011;9136;48.822;7.966;2023-09-19T15:55:05;13.70;;;13.05;;
18021;SDS011;9136;48.822;7.966;2023-09-19T15:57:55;12.77;;;12.20;;
18021;SDS011;9136;48.822;7.966;2023-09-19T16:00:46;13.02;;;12.43;;
18021;SDS011;9136;48.822;7.966;2023-09-19T16:03:34;13.10;;;12.55;;
18021;SDS011;9136;48.822;7.966;2023-09-19T16:06:22;12.38;;;11.85;;
18021;SDS011;9136;48.822;7.966;2023-09-19T16:09:12;13.57;;;12.98;;
18021;SDS011;9136;48.822;7.966;2023-09-19T16:12:00;12.70;;;12.20;;
18021;SDS011;9136;48.822;7.966;2023-09-19T16:14:50;12.82;;;12.23;;
18021;SDS011;9136;48.822;7.966;2023-09-19T16:17:38;13.43;;;12.82;;
18021;SDS011;9136;48.822;7.966;2023-09-19T16:20:26;13.35;;;12.75;;
18021;SDS011;9136;48.822;7.966;2023-09-19T16:23:15;12.32;;;11.82;;
18021;SDS011;9136;48.822;7.966;2023-09-19T16:26:03;11.88;;;11.38;;
18021;SDS011;9136;48.822;7.966;2023-09-19T16:28:52;12.80;;;12.20;;
18021;SDS011;9136;48.822;7.966;2023-09-19T16:31:44;13.75;;;13.15;;
18021;SDS011;9136;48.822;7.966;2023-09-19T16:34:31;12.20;;;11.70;;
18021;SDS011;9136;48.822;7.966;2023-09-19T16:37:19;12.65;;;12.13;;
18021;SDS011;9136;48.822;7.966;2023-09-19T16:40:09;12.95;;;12.35;;
18021;SDS011;9136;48.822;7.966;2023-09-19T16:43:00;12.93;;;12.32;;
18021;SDS011;9136;48.822;7.966;2023-09-19T16:45:51;12.43;;;11.82;;
18021;SDS011;9136;48.822;7.966;2023-09-19T16:48:49;12.35;;;11.85;;
18021;SDS011;9136;48.822;7.966;2023-09-19T16:51:37;12.32;;;11.82;;
18021;SDS011;9136;48.822;7.966;2023-09-19T16:54:27;12.57;;;12.07;;
18021;SDS011;9136;48.822;7.966;2023-09-19T16:57:16;14.10;;;13.50;;
18021;SDS011;9136;48.822;7.966;2023-09-19T17:00:04;13.82;;;13.20;;
18021;SDS011;9136;48.822;7.966;2023-09-19T17:02:53;12.65;;;12.15;;
18021;SDS011;9136;48.822;7.966;2023-09-19T17:05:44;13.45;;;12.85;;
18021;SDS011;9136;48.822;7.966;2023-09-19T17:08:33;13.27;;;12.68;;
18021;SDS011;9136;48.822;7.966;2023-09-19T17:11:21;13.50;;;12.90;;
18021;SDS011;9136;48.822;7.966;2023-09-19T17:14:11;13.98;;;13.35;;
18021;SDS011;9136;48.822;7.966;2023-09-19T17:17:01;14.00;;;13.40;;
18021;SDS011;9136;48.822;7.966;2023-09-19T17:19:50;15.13;;;14.48;;
18021;SDS011;9136;48.822;7.966;2023-09-19T17:22:40;15.00;;;14.38;;
18021;SDS011;9136;48.822;7.966;2023-09-19T17:25:27;15.15;;;14.52;;
18021;SDS011;9136;48.822;7.966;2023-09-19T17:28:17;14.98;;;14.38;;
18021;SDS011;9136;48.822;7.966;2023-09-19T17:31:09;14.63;;;14.02;;
18021;SDS011;9136;48.822;7.966;2023-09-19T17:33:58;15.00;;;14.32;;
18021;SDS011;9136;48.822;7.966;2023-09-19T17:36:46;14.85;;;14.25;;
18021;SDS011;9136;48.822;7.966;2023-09-19T17:39:35;14.27;;;13.68;;
18021;SDS011;9136;48.822;7.966;2023-09-19T17:42:23;16.17;;;15.48;;
18021;SDS011;9136;48.822;7.966;2023-09-19T17:45:14;15.40;;;14.70;;
18021;SDS011;9136;48.822;7.966;2023-09-19T17:48:04;16.33;;;15.57;;
18021;SDS011;9136;48.822;7.966;2023-09-19T17:50:58;15.57;;;14.88;;
18021;SDS011;9136;48.822;7.966;2023-09-19T17:53:47;17.00;;;16.23;;
18021;SDS011;9136;48.822;7.966;2023-09-19T17:56:37;17.25;;;16.45;;
18021;SDS011;9136;48.822;7.966;2023-09-19T17:59:25;16.13;;;15.43;;
18021;SDS011;9136;48.822;7.966;2023-09-19T18:02:13;16.42;;;15.73;;
18021;SDS011;9136;48.822;7.966;2023-09-19T18:05:02;15.20;;;14.55;;
18021;SDS011;9136;48.822;7.966;2023-09-19T18:07:51;15.18;;;14.48;;
18021;SDS011;9136;48.822;7.966;2023-09-19T18:10:39;16.30;;;15.60;;
18021;SDS011;9136;48.822;7.966;2023-09-19T18:13:29;15.35;;;14.63;;
18021;SDS011;9136;48.822;7.966;2023-09-19T18:16:17;16.33;;;15.63;;
18021;SDS011;9136;48.822;7.966;2023-09-19T18:19:05;17.08;;;16.33;;
18021;SDS011;9136;48.822;7.966;2023-09-19T18:21:53;15.93;;;15.23;;
18021;SDS011;9136;48.822;7.966;2023-09-19T18:24:41;15.93;;;15.23;;
18021;SDS011;9136;48.822;7.966;2023-09-19T18:27:29;15.35;;;14.65;;
18021;SDS011;9136;48.822;7.966;2023-09-19T18:30:19;16.83;;;16.02;;
18021;SDS011;9136;48.822;7.966;2023-09-19T18:33:07;15.77;;;15.07;;
18021;SDS011;9136;48.822;7.966;2023-09-19T18:35:59;14.23;;;13.63;;
18021;SDS011;9136;48.822;7.966;2023-09-19T18:38:49;15.05;;;14.45;;
18021;SDS011;9136;48.822;7.966;2023-09-19T18:41:37;15.63;;;14.93;;
18021;SDS011;9136;48.822;7.966;2023-09-19T18:44:26;15.57;;;14.88;;
18021;SDS011;9136;48.822;7.966;2023-09-19T18:47:15;16.60;;;15.90;;
18021;SDS011;9136;48.822;7.966;2023-09-19T18:50:09;15.40;;;14.70;;
18021;SDS011;9136;48.822;7.966;2023-09-19T18:53:14;14.27;;;13.68;;
18021;SDS011;9136;48.822;7.966;2023-09-19T18:56:11;14.48;;;13.88;;
18021;SDS011;9136;48.822;7.966;2023-09-19T18:59:04;14.55;;;13.95;;
18021;SDS011;9136;48.822;7.966;2023-09-19T19:01:55;15.50;;;14.80;;
18021;SDS011;9136;48.822;7.966;2023-09-19T19:04:46;14.70;;;14.10;;
18021;SDS011;9136;48.822;7.966;2023-09-19T19:07:34;14.43;;;13.82;;
18021;SDS011;9136;48.822;7.966;2023-09-19T19:10:25;14.75;;;14.15;;
18021;SDS011;9136;48.822;7.966;2023-09-19T19:13:18;15.63;;;14.93;;
18021;SDS011;9136;48.822;7.966;2023-09-19T19:16:05;15.27;;;14.57;;
18021;SDS011;9136;48.822;7.966;2023-09-19T19:18:56;15.27;;;14.63;;
18021;SDS011;9136;48.822;7.966;2023-09-19T19:21:46;16.13;;;15.43;;
18021;SDS011;9136;48.822;7.966;2023-09-19T19:24:34;15.93;;;15.23;;
18021;SDS011;9136;48.822;7.966;2023-09-19T19:27:22;15.73;;;15.02;;
18021;SDS011;9136;48.822;7.966;2023-09-19T19:30:12;16.17;;;15.40;;
18021;SDS011;9136;48.822;7.966;2023-09-19T19:33:03;16.63;;;15.82;;
18021;SDS011;9136;48.822;7.966;2023-09-19T19:35:52;17.00;;;16.23;;
18021;SDS011;9136;48.822;7.966;2023-09-19T19:38:53;15.55;;;14.85;;
18021;SDS011;9136;48.822;7.966;2023-09-19T19:41:41;16.02;;;15.32;;
18021;SDS011;9136;48.822;7.966;2023-09-19T19:44:30;15.70;;;15.00;;
18021;SDS011;9136;48.822;7.966;2023-09-19T19:47:17;15.63;;;14.93;;
18021;SDS011;9136;48.822;7.966;2023-09-19T19:50:06;15.70;;;15.00;;
18021;SDS011;9136;48.822;7.966;2023-09-19T19:52:54;16.20;;;15.50;;
18021;SDS011;9136;48.822;7.966;2023-09-19T19:55:44;16.63;;;15.93;;
18021;SDS011;9136;48.822;7.966;2023-09-19T19:58:33;15.32;;;14.63;;
18021;SDS011;9136;48.822;7.966;2023-09-19T20:01:22;15.50;;;14.80;;
18021;SDS011;9136;48.822;7.966;2023-09-19T20:04:10;15.43;;;14.73;;
18021;SDS011;9136;48.822;7.966;2023-09-19T20:06:58;14.55;;;13.95;;
18021;SDS011;9136;48.822;7.966;2023-09-19T20:09:46;15.77;;;15.07;;
18021;SDS011;9136;48.822;7.966;2023-09-19T20:12:35;15.60;;;14.90;;
18021;SDS011;9136;48.822;7.966;2023-09-19T20:15:23;16.45;;;15.75;;
18021;SDS011;9136;48.822;7.966;2023-09-19T20:18:12;14.35;;;13.75;;
18021;SDS011;9136;48.822;7.966;2023-09-19T20:21:03;17.40;;;16.63;;
18021;SDS011;9136;48.822;7.966;2023-09-19T20:23:55;15.75;;;15.05;;
18021;SDS011;9136;48.822;7.966;2023-09-19T20:26:50;17.73;;;16.92;;
18021;SDS011;9136;48.822;7.966;2023-09-19T20:29:41;15.75;;;15.05;;
18021;SDS011;9136;48.822;7.966;2023-09-19T20:32:29;15.52;;;14.85;;
18021;SDS011;9136;48.822;7.966;2023-09-19T20:35:17;15.80;;;15.07;;
18021;SDS011;9136;48.822;7.966;2023-09-19T20:38:05;15.55;;;14.85;;
18021;SDS011;9136;48.822;7.966;2023-09-19T20:40:53;15.30;;;14.60;;
18021;SDS011;9136;48.822;7.966;2023-09-19T20:43:41;16.13;;;15.43;;
18021;SDS011;9136;48.822;7.966;2023-09-19T20:46:31;15.73;;;15.02;;
18021;SDS011;9136;48.822;7.966;2023-09-19T20:49:18;14.98;;;14.38;;
18021;SDS011;9136;48.822;7.966;2023-09-19T20:52:06;15.50;;;14.80;;
18021;SDS011;9136;48.822;7.966;2023-09-19T20:54:54;16.17;;;15.48;;
18021;SDS011;9136;48.822;7.966;2023-09-19T20:57:41;16.13;;;15.43;;
18021;SDS011;9136;48.822;7.966;2023-09-19T21:00:29;14.15;;;13.55;;
18021;SDS011;9136;48.822;7.966;2023-09-19T21:03:18;16.00;;;15.30;;
18021;SDS011;9136;48.822;7.966;2023-09-19T21:06:07;15.57;;;14.88;;
18021;SDS011;9136;48.822;7.966;2023-09-19T21:08:56;15.65;;;14.95;;
18021;SDS011;9136;48.822;7.966;2023-09-19T21:11:44;15.70;;;15.00;;
18021;SDS011;9136;48.822;7.966;2023-09-19T21:14:32;17.15;;;16.35;;
18021;SDS011;9136;48.822;7.966;2023-09-19T21:17:20;16.73;;;16.02;;
18021;SDS011;9136;48.822;7.966;2023-09-19T21:20:11;16.00;;;15.30;;
18021;SDS011;9136;48.822;7.966;2023-09-19T21:23:00;16.60;;;15.82;;
18021;SDS011;9136;48.822;7.966;2023-09-19T21:25:53;15.73;;;15.02;;
18021;SDS011;9136;48.822;7.966;2023-09-19T21:28:41;16.02;;;15.32;;
18021;SDS011;9136;48.822;7.966;2023-09-19T21:31:29;15.60;;;14.90;;
18021;SDS011;9136;48.822;7.966;2023-09-19T21:34:18;15.98;;;15.27;;
18021;SDS011;9136;48.822;7.966;2023-09-19T21:37:09;15.32;;;14.65;;
18021;SDS011;9136;48.822;7.966;2023-09-19T21:40:00;17.02;;;16.23;;
18021;SDS011;9136;48.822;7.966;2023-09-19T21:42:50;16.85;;;16.05;;
18021;SDS011;9136;48.822;7.966;2023-09-19T21:45:37;16.25;;;15.55;;
18021;SDS011;9136;48.822;7.966;2023-09-19T21:48:25;16.92;;;16.23;;
18021;SDS011;9136;48.822;7.966;2023-09-19T21:51:13;15.43;;;14.73;;
18021;SDS011;9136;48.822;7.966;2023-09-19T21:54:03;16.55;;;15.85;;
18021;SDS011;9136;48.822;7.966;2023-09-19T21:56:51;16.13;;;15.43;;
18021;SDS011;9136;48.822;7.966;2023-09-19T21:59:39;16.75;;;15.95;;
18021;SDS011;9136;48.822;7.966;2023-09-19T22:02:28;16.80;;;16.10;;
18021;SDS011;9136;48.822;7.966;2023-09-19T22:05:18;16.55;;;15.85;;
18021;SDS011;9136;48.822;7.966;2023-09-19T22:08:11;15.90;;;15.20;;
18021;SDS011;9136;48.822;7.966;2023-09-19T22:11:00;16.10;;;15.40;;
18021;SDS011;9136;48.822;7.966;2023-09-19T22:13:51;16.75;;;16.05;;
18021;SDS011;9136;48.822;7.966;2023-09-19T22:16:41;15.65;;;14.95;;
18021;SDS011;9136;48.822;7.966;2023-09-19T22:19:29;15.80;;;15.10;;
18021;SDS011;9136;48.822;7.966;2023-09-19T22:22:17;17.02;;;16.13;;
18021;SDS011;9136;48.822;7.966;2023-09-19T22:25:05;16.67;;;15.95;;
18021;SDS011;9136;48.822;7.966;2023-09-19T22:27:56;15.65;;;14.95;;
18021;SDS011;9136;48.822;7.966;2023-09-19T22:30:43;15.82;;;15.13;;
18021;SDS011;9136;48.822;7.966;2023-09-19T22:33:32;15.70;;;14.93;;
18021;SDS011;9136;48.822;7.966;2023-09-19T22:36:24;16.52;;;15.82;;
18021;SDS011;9136;48.822;7.966;2023-09-19T22:39:18;17.60;;;16.80;;
18021;SDS011;9136;48.822;7.966;2023-09-19T22:42:10;15.88;;;15.18;;
18021;SDS011;9136;48.822;7.966;2023-09-19T22:45:00;15.93;;;15.23;;
18021;SDS011;9136;48.822;7.966;2023-09-19T22:47:47;15.90;;;15.10;;
18021;SDS011;9136;48.822;7.966;2023-09-19T22:50:35;17.45;;;16.65;;
18021;SDS011;9136;48.822;7.966;2023-09-19T22:53:30;15.07;;;14.45;;
18021;SDS011;9136;48.822;7.966;2023-09-19T22:56:23;14.98;;;14.35;;
18021;SDS011;9136;48.822;7.966;2023-09-19T22:59:13;15.48;;;14.68;;
18021;SDS011;9136;48.822;7.966;2023-09-19T23:02:02;15.43;;;14.73;;
18021;SDS011;9136;48.822;7.966;2023-09-19T23:04:51;15.35;;;14.65;;
18021;SDS011;9136;48.822;7.966;2023-09-19T23:07:39;15.25;;;14.50;;
18021;SDS011;9136;48.822;7.966;2023-09-19T23:10:29;15.67;;;14.97;;
18021;SDS011;9136;48.822;7.966;2023-09-19T23:13:19;16.43;;;15.63;;
18021;SDS011;9136;48.822;7.966;2023-09-19T23:16:13;16.23;;;15.50;;
18021;SDS011;9136;48.822;7.966;2023-09-19T23:19:03;15.70;;;14.97;;
18021;SDS011;9136;48.822;7.966;2023-09-19T23:22:01;16.57;;;15.87;;
18021;SDS011;9136;48.822;7.966;2023-09-19T23:25:07;16.23;;;15.50;;
18021;SDS011;9136;48.822;7.966;2023-09-19T23:27:58;16.23;;;15.53;;
18021;SDS011;9136;48.822;7.966;2023-09-19T23:30:49;16.67;;;15.73;;
18021;SDS011;9136;48.822;7.966;2023-09-19T23:33:39;15.63;;;14.93;;
18021;SDS011;9136;48.822;7.966;2023-09-19T23:36:29;15.10;;;14.50;;
18021;SDS011;9136;48.822;7.966;2023-09-19T23:39:17;15.20;;;14.50;;
18021;SDS011;9136;48.822;7.966;2023-09-19T23:42:04;17.33;;;16.57;;
18021;SDS011;9136;48.822;7.966;2023-09-19T23:44:53;16.50;;;15.80;;
18021;SDS011;9136;48.822;7.966;2023-09-19T23:47:44;16.17;;;15.47;;
18021;SDS011;9136;48.822;7.966;2023-09-19T23:50:32;15.43;;;14.73;;
18021;SDS011;9136;48.822;7.966;2023-09-19T23:53:29;16.87;;;15.97;;
18021;SDS011;9136;48.822;7.966;2023-09-19T23:56:17;17.53;;;16.73;;
18021;SDS011;9136;48.822;7.966;2023-09-19T23:59:05;15.57;;;14.87;;
